Time;durP1;ratioP1;P1;durP2;ratioP2;P2;SDS_P1;SDS_P2;PMS_P1;PMS_P2;Temp;Humidity;BMP_temperature;BMP_pressure;BME280_temperature;BME280_humidity;BME280_pressure;Samples;Min_cycle;Max_cycle;Signal;HPM_P1;HPM_P2
2021/12/19 00:02:44;;;;;;;39.43;13.60;;;;;;;-145.69;100.00;74350.47;5052659;28;20204;-76
2021/12/19 00:10:39;;;;;;;40.30;12.63;;;;;;;-145.69;100.00;74338.53;5052275;28;20206;-76
2021/12/19 00:13:06;;;;;;;36.67;13.77;;;;;;;-145.69;100.00;74328.56;5052219;28;20239;-76
2021/12/19 00:15:33;;;;;;;42.47;12.67;;;;;;;-145.69;100.00;74320.59;5052340;28;20262;-76
2021/12/19 00:18:01;;;;;;;39.97;13.73;;;;;;;-145.69;100.00;74320.59;5052397;28;20206;-76
2021/12/19 00:20:27;;;;;;;44.20;14.47;;;;;;;-145.69;100.00;74320.59;5054889;28;20257;-76
2021/12/19 00:22:54;;;;;;;39.97;14.17;;;;;;;-145.69;100.00;74312.63;5055778;28;20203;-76
2021/12/19 00:25:20;;;;;;;45.17;14.43;;;;;;;-145.69;100.00;74302.69;5055941;28;20209;-76
2021/12/19 00:27:47;;;;;;;49.37;15.37;;;;;;;-145.69;100.00;74296.69;5055919;28;20625;-76
2021/12/19 00:30:13;;;;;;;47.53;16.50;;;;;;;-145.69;100.00;74290.72;5055419;28;20196;-76
2021/12/19 00:32:40;;;;;;;46.03;15.90;;;;;;;-145.69;100.00;74276.78;5055606;28;20200;-76
2021/12/19 00:35:09;;;;;;;48.17;16.10;;;;;;;-145.69;100.00;74280.78;5055509;28;20212;-76
2021/12/19 00:37:35;;;;;;;52.73;16.57;;;;;;;-145.69;100.00;74274.78;5055471;28;20651;-76
2021/12/19 00:40:02;;;;;;;56.23;17.33;;;;;;;-145.69;100.00;74276.78;5055685;28;20203;-76
2021/12/19 00:42:30;;;;;;;51.57;14.87;;;;;;;-145.69;100.00;74276.78;5055667;28;20208;-76
2021/12/19 00:45:01;;;;;;;51.17;15.73;;;;;;;-145.69;100.00;74264.84;5055344;28;20203;-76
2021/12/19 00:47:27;;;;;;;50.47;15.73;;;;;;;-145.69;100.00;74276.78;5055469;28;20635;-76
2021/12/19 00:49:54;;;;;;;51.47;16.50;;;;;;;-145.69;100.00;74274.78;5055370;28;20245;-76
2021/12/19 00:52:22;;;;;;;50.80;15.73;;;;;;;-145.69;100.00;74272.81;5055246;28;20286;-76
2021/12/19 00:54:49;;;;;;;51.00;16.13;;;;;;;-145.69;100.00;74264.84;5055581;28;20249;-76
2021/12/19 00:57:15;;;;;;;54.00;16.83;;;;;;;-145.69;100.00;74256.88;5055260;28;20239;-76
2021/12/19 00:59:42;;;;;;;51.87;15.97;;;;;;;-145.69;100.00;74264.84;5054976;28;20210;-76
2021/12/19 01:02:08;;;;;;;52.03;14.83;;;;;;;-145.69;100.00;74264.84;5055208;28;20282;-76
2021/12/19 01:04:35;;;;;;;73.70;17.40;;;;;;;-145.69;100.00;74296.69;5054957;28;20200;-76
2021/12/19 01:07:02;;;;;;;57.50;15.90;;;;;;;-145.69;100.00;74298.69;5055301;28;20199;-76
2021/12/19 01:09:31;;;;;;;70.60;15.27;;;;;;;-145.69;100.00;74288.75;5055031;28;20254;-76
2021/12/19 01:11:57;;;;;;;81.03;16.40;;;;;;;-145.69;100.00;74304.66;5054757;28;20235;-76
2021/12/19 01:14:24;;;;;;;52.80;16.43;;;;;;;-145.69;100.00;74296.69;5054767;28;20199;-76
2021/12/19 01:16:54;;;;;;;46.23;13.73;;;;;;;-145.69;100.00;74292.72;5054227;28;20227;-76
2021/12/19 01:19:24;;;;;;;51.27;15.00;;;;;;;-145.69;100.00;74288.75;5054946;28;20207;-76
2021/12/19 01:21:51;;;;;;;44.07;15.13;;;;;;;-145.69;100.00;74300.69;5054448;28;20195;-76
2021/12/19 01:24:17;;;;;;;36.50;13.40;;;;;;;-145.69;100.00;74308.66;5054784;28;20268;-76
2021/12/19 01:26:45;;;;;;;39.23;12.30;;;;;;;-145.69;100.00;74332.53;5054742;28;20204;-76
2021/12/19 01:29:13;;;;;;;33.33;12.17;;;;;;;-145.69;100.00;74348.47;5054250;28;20657;-76
2021/12/19 01:31:42;;;;;;;36.83;11.87;;;;;;;-145.69;100.00;74358.44;5054282;28;20199;-76
2021/12/19 01:34:12;;;;;;;33.10;13.00;;;;;;;-145.69;100.00;74382.31;5054257;28;20654;-75
2021/12/19 01:36:39;;;;;;;35.77;12.30;;;;;;;-145.69;100.00;74390.28;5054517;28;20234;-75
2021/12/19 01:39:07;;;;;;;26.17;11.07;;;;;;;-145.69;100.00;74406.22;5054241;28;20685;-76
2021/12/19 01:41:34;;;;;;;34.30;11.33;;;;;;;-145.69;100.00;74404.22;5054175;28;20658;-76
2021/12/19 01:44:01;;;;;;;34.00;13.00;;;;;;;-145.69;100.00;74416.19;5054244;28;20199;-75
2021/12/19 01:46:28;;;;;;;31.87;11.30;;;;;;;-145.69;100.00;74412.19;5054072;28;20200;-76
2021/12/19 01:48:54;;;;;;;34.77;11.57;;;;;;;-145.69;100.00;74416.19;5054295;28;20207;-77
2021/12/19 01:51:21;;;;;;;36.03;12.27;;;;;;;-145.69;100.00;74420.16;5054223;28;20203;-75
2021/12/19 01:53:49;;;;;;;31.00;11.60;;;;;;;-145.69;100.00;74408.22;5053997;28;20214;-76
2021/12/19 01:56:16;;;;;;;33.30;11.90;;;;;;;-145.69;100.00;74402.25;5053939;28;20223;-75
2021/12/19 01:58:47;;;;;;;31.03;12.57;;;;;;;-145.69;100.00;74396.28;5053679;28;20202;-76
2021/12/19 02:01:15;;;;;;;41.53;13.57;;;;;;;-145.69;100.00;74400.25;5053914;28;20200;-76
2021/12/19 02:03:43;;;;;;;44.20;13.97;;;;;;;-145.69;100.00;74396.28;5053920;28;20211;-76
2021/12/19 02:06:10;;;;;;;46.63;13.17;;;;;;;-145.69;100.00;74394.28;5053968;28;20612;-76
2021/12/19 02:08:36;;;;;;;36.90;12.43;;;;;;;-145.69;100.00;74396.28;5053732;28;20242;-75
2021/12/19 02:11:03;;;;;;;38.33;12.97;;;;;;;-145.69;100.00;74394.28;5053727;28;20195;-75
2021/12/19 02:13:32;;;;;;;41.10;13.10;;;;;;;-145.69;100.00;74396.28;5053309;28;20235;-76
2021/12/19 02:15:59;;;;;;;38.57;13.07;;;;;;;-145.69;100.00;74384.31;5053722;28;20238;-75
2021/12/19 02:18:27;;;;;;;45.97;13.53;;;;;;;-145.69;100.00;74386.31;5053774;28;20199;-76
2021/12/19 02:21:00;;;;;;;43.40;14.70;;;;;;;-145.69;100.00;74380.34;5053679;28;20605;-76
2021/12/19 02:23:29;;;;;;;50.27;15.07;;;;;;;-145.69;100.00;74358.44;5053551;28;20290;-76
2021/12/19 02:26:05;;;;;;;55.20;14.90;;;;;;;-145.69;100.00;74344.50;5053385;28;20205;-76
2021/12/19 02:28:31;;;;;;;106.83;15.33;;;;;;;-145.69;100.00;74340.50;5053122;28;20662;-76
2021/12/19 02:30:58;;;;;;;46.77;15.00;;;;;;;-145.69;100.00;74342.50;5053534;28;20257;-76
2021/12/19 02:33:27;;;;;;;49.40;14.10;;;;;;;-145.69;100.00;74348.47;5053389;28;20207;-76
2021/12/19 02:36:02;;;;;;;45.70;13.77;;;;;;;-145.69;100.00;74350.47;5053206;28;20215;-76
2021/12/19 02:49:28;;;;;;;36.43;11.47;;;;;;;-145.69;100.00;74414.19;5053135;28;20685;-76
2021/12/19 02:51:56;;;;;;;35.43;12.50;;;;;;;-145.69;100.00;74436.09;5053120;28;20203;-76
2021/12/19 02:54:24;;;;;;;32.97;11.03;;;;;;;-145.69;100.00;74454.03;5052413;28;20666;-76
2021/12/19 02:56:51;;;;;;;29.43;10.10;;;;;;;-145.69;100.00;74463.97;5052511;28;20751;-75
2021/12/19 02:59:18;;;;;;;26.80;9.60;;;;;;;-145.69;100.00;74481.91;5052748;28;20682;-76
2021/12/19 03:01:45;;;;;;;29.50;10.17;;;;;;;-145.69;100.00;74495.84;5053149;28;20206;-75
2021/12/19 03:04:13;;;;;;;28.33;10.47;;;;;;;-145.69;100.00;74505.78;5053012;28;20203;-75
2021/12/19 03:06:44;;;;;;;35.93;12.30;;;;;;;-145.69;100.00;74499.81;5053302;28;20562;-75
2021/12/19 03:09:13;;;;;;;32.10;11.33;;;;;;;-145.69;100.00;74495.84;5052819;28;20653;-76
2021/12/19 03:19:51;;;;;;;42.80;13.77;;;;;;;-145.69;100.00;74497.81;5052781;28;20321;-75
2021/12/19 03:22:17;;;;;;;34.93;12.23;;;;;;;-145.69;100.00;74507.78;5052586;28;20203;-76
2021/12/19 03:24:45;;;;;;;37.40;12.33;;;;;;;-145.69;100.00;74523.72;5052362;28;20680;-76
2021/12/19 03:27:12;;;;;;;45.25;18.00;;;;;;;-145.69;100.00;74527.69;5051035;28;20439;-76
2021/12/19 03:29:38;;;;;;;31.40;11.97;;;;;;;-145.69;100.00;74531.69;5052505;28;20666;-75
2021/12/19 03:32:05;;;;;;;33.77;12.43;;;;;;;-145.69;100.00;74549.59;5052698;28;20207;-76
2021/12/19 03:34:34;;;;;;;32.30;11.23;;;;;;;-145.69;100.00;74557.56;5052296;28;20609;-75
2021/12/19 03:37:01;;;;;;;33.57;11.20;;;;;;;-145.69;100.00;74555.59;5052582;28;20629;-75
2021/12/19 03:39:36;;;;;;;29.07;10.23;;;;;;;-145.69;100.00;74551.59;5052554;28;20214;-76
2021/12/19 03:42:05;;;;;;;29.37;10.53;;;;;;;-145.69;100.00;74557.56;5052586;28;20261;-76
2021/12/19 03:44:31;;;;;;;35.00;10.93;;;;;;;-145.69;100.00;74539.66;5052533;28;20214;-76
2021/12/19 03:46:59;;;;;;;37.00;11.87;;;;;;;-145.69;100.00;74531.69;5052508;28;20225;-75
2021/12/19 03:49:25;;;;;;;38.53;12.73;;;;;;;-145.69;100.00;74485.88;5052297;28;20207;-76
2021/12/19 03:51:51;;;;;;;29.90;10.63;;;;;;;-145.69;100.00;74481.91;5052553;28;20234;-76
2021/12/19 03:54:18;;;;;;;29.43;10.90;;;;;;;-145.69;100.00;74471.94;5053077;28;20199;-75
2021/12/19 03:56:44;;;;;;;34.60;10.90;;;;;;;-145.69;100.00;74467.97;5056384;28;20223;-76
2021/12/19 03:59:12;;;;;;;30.37;11.67;;;;;;;-145.69;100.00;74471.94;5056272;28;20199;-76
2021/12/19 04:01:41;;;;;;;36.40;10.93;;;;;;;-145.69;100.00;74463.97;5056064;28;20207;-76
2021/12/19 04:04:08;;;;;;;34.00;11.77;;;;;;;-145.69;100.00;74444.06;5056311;28;20207;-76
2021/12/19 04:06:34;;;;;;;27.03;10.00;;;;;;;-145.69;100.00;74444.06;5056248;28;20286;-76
2021/12/19 04:09:02;;;;;;;29.17;9.30;;;;;;;-145.69;100.00;74440.09;5056188;28;20204;-76
2021/12/19 04:11:30;;;;;;;25.43;9.53;;;;;;;-145.69;100.00;74452.03;5055947;28;20211;-75
2021/12/19 04:13:57;;;;;;;22.53;8.77;;;;;;;-145.69;100.00;74456.00;5056076;28;20294;-75
2021/12/19 04:16:24;;;;;;;24.93;9.50;;;;;;;-145.69;100.00;74450.03;5055834;28;20558;-75
2021/12/19 04:18:51;;;;;;;31.37;9.77;;;;;;;-145.69;100.00;74444.06;5055767;28;20245;-75
2021/12/19 04:21:18;;;;;;;34.60;10.87;;;;;;;-145.69;100.00;74452.03;5056000;28;20203;-76
2021/12/19 04:23:44;;;;;;;36.33;12.00;;;;;;;-145.69;100.00;74450.03;5055277;28;20685;-75
2021/12/19 04:26:11;;;;;;;31.40;10.67;;;;;;;-145.69;100.00;74456.00;5055815;28;20203;-75
2021/12/19 04:28:37;;;;;;;38.37;11.50;;;;;;;-145.69;100.00;74461.97;5055816;28;20203;-76
2021/12/19 04:31:04;;;;;;;33.97;11.00;;;;;;;-145.69;100.00;74471.94;5055519;28;20199;-76
2021/12/19 04:33:34;;;;;;;35.70;11.80;;;;;;;-145.69;100.00;74475.94;5055487;28;20688;-76
2021/12/19 04:36:04;;;;;;;34.27;10.37;;;;;;;-145.69;100.00;74469.94;5055724;28;20203;-76
2021/12/19 04:39:11;;;;;;;31.00;10.43;;;;;;;-145.69;100.00;74467.97;5055246;28;20235;-75
2021/12/19 04:55:46;;;;;;;24.53;8.67;;;;;;;-145.69;100.00;74535.66;5055238;28;20246;-75
2021/12/19 04:58:22;;;;;;;23.60;8.97;;;;;;;-145.69;100.00;74547.63;5055210;28;20226;-75
2021/12/19 05:01:00;;;;;;;27.10;9.57;;;;;;;-145.69;100.00;74535.66;5055342;28;20623;-75
2021/12/19 05:03:39;;;;;;;31.37;9.83;;;;;;;-145.69;100.00;74527.69;5055076;28;20199;-75
2021/12/19 05:06:13;;;;;;;27.07;9.57;;;;;;;-145.69;100.00;74535.66;5054701;28;20206;-75
2021/12/19 05:14:12;;;;;;;20.03;7.60;;;;;;;-145.69;100.00;74571.50;5054984;28;20203;-76
2021/12/19 05:16:42;;;;;;;28.60;8.93;;;;;;;-145.69;100.00;74581.47;5054624;28;20203;-75
2021/12/19 05:19:19;;;;;;;30.73;10.20;;;;;;;-145.69;100.00;74573.50;5055052;28;20286;-75
2021/12/19 05:21:48;;;;;;;25.93;8.60;;;;;;;-145.69;100.00;74573.50;5054674;28;20665;-75
2021/12/19 05:24:43;;;;;;;30.40;9.20;;;;;;;-145.69;100.00;74585.44;5054469;28;20204;-75
2021/12/19 05:27:10;;;;;;;30.10;9.30;;;;;;;-145.69;100.00;74593.41;5054494;28;20710;-75
2021/12/19 05:29:37;;;;;;;23.77;8.17;;;;;;;-145.69;100.00;74593.41;5054532;28;20601;-75
2021/12/19 05:32:05;;;;;;;25.00;8.60;;;;;;;-145.69;100.00;74569.53;5054657;28;20193;-75
2021/12/19 05:34:32;;;;;;;25.40;8.07;;;;;;;-145.69;100.00;74571.50;5054547;28;20210;-75
2021/12/19 05:45:13;;;;;;;25.67;8.27;;;;;;;-145.69;100.00;74565.53;5054340;28;20257;-75
2021/12/19 05:47:39;;;;;;;15.60;6.47;;;;;;;-145.69;100.00;74579.47;5054288;28;20200;-75
2021/12/19 05:50:07;;;;;;;22.83;6.83;;;;;;;-145.69;100.00;74585.44;5054075;28;20203;-75
2021/12/19 05:52:35;;;;;;;19.53;6.60;;;;;;;-145.69;100.00;74595.41;5053778;28;20663;-75
2021/12/19 05:55:01;;;;;;;17.47;6.23;;;;;;;-145.69;100.00;74599.38;5054229;28;20207;-75
2021/12/19 05:57:28;;;;;;;16.70;6.67;;;;;;;-145.69;100.00;74591.44;5053927;28;20227;-75
2021/12/19 05:59:54;;;;;;;18.90;6.57;;;;;;;-145.69;100.00;74565.53;5054000;28;20203;-75
2021/12/19 06:02:21;;;;;;;16.90;6.87;;;;;;;-145.69;100.00;74537.66;5053979;28;20605;-75
2021/12/19 06:04:47;;;;;;;17.77;6.70;;;;;;;-145.69;100.00;74553.59;5053676;28;20206;-75
2021/12/19 06:07:13;;;;;;;17.60;6.30;;;;;;;-145.69;100.00;74563.53;5053915;28;20662;-75
2021/12/19 06:09:41;;;;;;;15.13;5.77;;;;;;;-145.69;100.00;74567.53;5053819;28;20617;-75
2021/12/19 06:12:09;;;;;;;12.80;5.13;;;;;;;-145.69;100.00;74571.50;5053699;28;20586;-75
2021/12/19 06:14:35;;;;;;;13.77;5.50;;;;;;;-145.69;100.00;74573.50;5053735;28;20199;-75
2021/12/19 06:17:03;;;;;;;19.37;5.67;;;;;;;-145.69;100.00;74563.53;5052902;28;20227;-75
2021/12/19 06:19:30;;;;;;;13.00;4.83;;;;;;;-145.69;100.00;74551.59;5053828;28;20200;-74
2021/12/19 06:21:56;;;;;;;10.93;4.40;;;;;;;-145.69;100.00;74547.63;5053716;28;20202;-75
2021/12/19 06:24:23;;;;;;;11.17;4.20;;;;;;;-145.69;100.00;74535.66;5053083;28;20657;-75
2021/12/19 06:26:51;;;;;;;10.40;4.40;;;;;;;-145.69;100.00;74539.66;5053575;28;20261;-75
2021/12/19 06:29:17;;;;;;;9.10;3.60;;;;;;;-145.69;100.00;74543.63;5053316;28;20202;-75
2021/12/19 06:31:44;;;;;;;7.53;3.27;;;;;;;-145.69;100.00;74535.66;5053363;28;20204;-75
2021/12/19 06:34:10;;;;;;;7.17;3.07;;;;;;;-145.69;100.00;74517.75;5053267;28;20655;-75
2021/12/19 06:36:37;;;;;;;8.57;3.07;;;;;;;-145.69;100.00;74511.78;5053442;28;20196;-75
2021/12/19 06:39:04;;;;;;;8.23;3.27;;;;;;;-145.69;100.00;74521.72;5053237;28;20235;-75
2021/12/19 06:41:31;;;;;;;8.27;3.23;;;;;;;-145.69;100.00;74521.72;5053277;28;20199;-75
2021/12/19 06:43:58;;;;;;;6.23;2.37;;;;;;;-145.69;100.00;74511.78;5053284;28;20258;-75
2021/12/19 06:46:25;;;;;;;6.13;2.30;;;;;;;-145.69;100.00;74497.81;5053038;28;20203;-75
2021/12/19 06:48:51;;;;;;;6.13;2.60;;;;;;;-145.69;100.00;74509.78;5053334;28;20225;-75
2021/12/19 06:51:18;;;;;;;6.33;2.53;;;;;;;-145.69;100.00;74511.78;5053272;28;20203;-75
2021/12/19 06:53:45;;;;;;;4.00;2.10;;;;;;;-145.69;100.00;74507.78;5052877;28;20196;-75
2021/12/19 06:56:11;;;;;;;5.67;2.33;;;;;;;-145.69;100.00;74511.78;5053100;28;20207;-75
2021/12/19 06:58:38;;;;;;;5.47;2.70;;;;;;;-145.69;100.00;74507.78;5052926;28;20231;-75
2021/12/19 07:01:05;;;;;;;4.70;2.10;;;;;;;-145.69;100.00;74523.72;5052920;28;20206;-75
2021/12/19 07:03:32;;;;;;;3.57;1.90;;;;;;;-145.69;100.00;74525.72;5053054;28;20226;-75
2021/12/19 07:05:59;;;;;;;4.57;2.13;;;;;;;-145.69;100.00;74511.78;5052522;28;20725;-75
2021/12/19 07:08:25;;;;;;;3.83;1.67;;;;;;;-145.69;100.00;74495.84;5053036;28;20348;-75
2021/12/19 07:10:52;;;;;;;3.50;1.53;;;;;;;-145.69;100.00;74485.88;5052798;28;20558;-75
2021/12/19 07:13:20;;;;;;;2.80;1.50;;;;;;;-145.69;100.00;74467.97;5052013;28;20319;-75
2021/12/19 07:15:47;;;;;;;1.97;1.23;;;;;;;-145.69;100.00;74460.00;5052970;28;20207;-75
2021/12/19 07:18:15;;;;;;;1.60;1.20;;;;;;;-145.69;100.00;74452.03;5052408;28;20234;-75
2021/12/19 07:20:43;;;;;;;2.13;1.03;;;;;;;-145.69;100.00;74452.03;5052766;28;20192;-75
2021/12/19 07:23:11;;;;;;;2.87;1.20;;;;;;;-145.69;100.00;74444.06;5052681;28;20242;-74
2021/12/19 07:25:38;;;;;;;1.73;1.10;;;;;;;-145.69;100.00;74426.13;5052678;28;20294;-75
2021/12/19 07:28:05;;;;;;;1.37;0.90;;;;;;;-145.69;100.00;74420.16;5053044;28;20589;-75
2021/12/19 07:30:35;;;;;;;3.77;0.90;;;;;;;-145.69;100.00;74420.16;5057044;28;20214;-75
2021/12/19 07:33:01;;;;;;;2.30;1.10;;;;;;;-145.69;100.00;74402.25;5056839;28;20199;-75
2021/12/19 07:35:33;;;;;;;1.33;1.07;;;;;;;-145.69;100.00;74404.22;5056587;28;20654;-75
2021/12/19 07:38:01;;;;;;;1.77;0.97;;;;;;;-145.69;100.00;74396.28;5056583;28;20317;-75
2021/12/19 07:40:35;;;;;;;1.17;0.87;;;;;;;-145.69;100.00;74400.25;5056093;28;20234;-75
2021/12/19 07:43:03;;;;;;;2.70;1.00;;;;;;;-145.69;100.00;74390.28;5056387;28;20202;-75
2021/12/19 07:45:30;;;;;;;1.47;1.00;;;;;;;-145.69;100.00;74356.44;5056438;28;20613;-75
2021/12/19 07:47:59;;;;;;;1.67;1.30;;;;;;;-145.69;100.00;74354.44;5056478;28;20199;-75
2021/12/19 07:50:27;;;;;;;2.90;1.00;;;;;;;-145.69;100.00;74334.53;5056447;28;20195;-75
2021/12/19 07:52:55;;;;;;;2.03;1.10;;;;;;;-145.69;100.00;74336.53;5056342;28;20206;-75
2021/12/19 07:55:23;;;;;;;1.90;1.10;;;;;;;-145.69;100.00;74334.53;5056569;28;20196;-75
2021/12/19 07:57:52;;;;;;;1.53;1.20;;;;;;;-145.69;100.00;74330.56;5056170;28;20709;-75
2021/12/19 08:00:20;;;;;;;2.07;1.27;;;;;;;-145.69;100.00;74326.56;5056393;28;20204;-75
2021/12/19 08:02:48;;;;;;;1.50;1.00;;;;;;;-145.69;100.00;74322.59;5056220;28;20199;-75
2021/12/19 08:05:16;;;;;;;1.07;0.90;;;;;;;-145.69;100.00;74296.69;5055904;28;20195;-75
2021/12/19 08:07:47;;;;;;;1.47;0.90;;;;;;;-145.69;100.00;74284.75;5055997;28;20302;-75
2021/12/19 08:11:39;;;;;;;1.07;0.87;;;;;;;-145.69;100.00;74286.75;5056277;28;20203;-75
2021/12/19 08:13:04;;;;;;;1.50;0.97;;;;;;;-145.69;100.00;74300.69;5055523;28;20227;-76
2021/12/19 08:15:31;;;;;;;0.97;0.80;;;;;;;-145.69;100.00;74310.63;5056016;28;20210;-76
2021/12/19 08:17:57;;;;;;;1.10;1.00;;;;;;;-145.69;100.00;74316.63;5055707;28;20227;-75
2021/12/19 08:20:25;;;;;;;1.73;1.13;;;;;;;-145.69;100.00;74316.63;5056130;28;20206;-75
2021/12/19 08:22:53;;;;;;;1.20;1.10;;;;;;;-145.69;100.00;74308.66;5055709;28;20638;-75
2021/12/19 08:25:21;;;;;;;4.13;1.37;;;;;;;-145.69;100.00;74316.63;5055908;28;20203;-75
2021/12/19 08:27:48;;;;;;;2.77;1.93;;;;;;;-145.69;100.00;74310.63;5055862;28;20209;-76
2021/12/19 08:30:15;;;;;;;6.93;3.43;;;;;;;-145.69;100.00;74296.69;5055769;28;20713;-75
2021/12/19 08:32:42;;;;;;;7.30;3.17;;;;;;;-145.69;100.00;74312.63;5055572;28;20196;-75
2021/12/19 08:35:11;;;;;;;13.40;5.80;;;;;;;-145.69;100.00;74308.66;5055806;28;20203;-76
2021/12/19 08:37:38;;;;;;;13.50;6.10;;;;;;;-145.69;100.00;74328.56;5055663;28;20207;-75
2021/12/19 08:40:10;;;;;;;13.17;5.97;;;;;;;-145.69;100.00;74316.63;5054999;28;20245;-75
2021/12/19 08:42:38;;;;;;;11.17;5.40;;;;;;;-145.69;100.00;74326.56;5055143;28;20198;-75
2021/12/19 08:45:06;;;;;;;10.37;5.30;;;;;;;-145.69;100.00;74322.59;5055165;28;20200;-75
2021/12/19 08:47:33;;;;;;;9.37;4.50;;;;;;;-145.69;100.00;74324.59;5055520;28;20604;-76
2021/12/19 08:49:59;;;;;;;8.80;4.00;;;;;;;-145.69;100.00;74316.63;5055271;28;20211;-75
2021/12/19 08:52:26;;;;;;;6.93;3.90;;;;;;;-145.69;100.00;74318.59;5055423;28;20200;-78
2021/12/19 08:54:53;;;;;;;7.17;3.60;;;;;;;-145.69;100.00;74310.63;5055335;28;20203;-77
2021/12/19 08:57:19;;;;;;;7.93;3.97;;;;;;;-145.69;100.00;74288.75;5055461;28;20562;-77
2021/12/19 08:59:47;;;;;;;6.83;3.90;;;;;;;-145.69;100.00;74284.75;5054922;28;20233;-77
2021/12/19 09:02:13;;;;;;;7.47;4.20;;;;;;;-145.69;100.00;74276.78;5055447;28;20586;-77
2021/12/19 09:04:40;;;;;;;9.70;4.17;;;;;;;-145.69;100.00;74264.84;5055504;28;20221;-77
2021/12/19 09:07:06;;;;;;;6.87;3.43;;;;;;;-145.69;100.00;74250.91;5055352;28;20266;-77
2021/12/19 09:09:33;;;;;;;6.03;3.53;;;;;;;-145.69;100.00;74240.94;5055002;28;20199;-76
2021/12/19 09:11:59;;;;;;;7.17;3.27;;;;;;;-145.69;100.00;74227.00;5054728;28;20215;-78
2021/12/19 09:14:26;;;;;;;61.90;21.27;;;;;;;-145.69;100.00;74225.03;5055432;28;20203;-77
2021/12/19 09:16:54;;;;;;;37.90;14.43;;;;;;;-145.69;100.00;74213.06;5055086;28;20203;-77
2021/12/19 09:19:21;;;;;;;17.70;8.03;;;;;;;-145.69;100.00;74209.09;5055005;28;20231;-77
2021/12/19 09:21:47;;;;;;;15.20;6.87;;;;;;;-145.69;100.00;74193.16;5054914;28;20202;-77
2021/12/19 09:24:14;;;;;;;16.00;6.40;;;;;;;-145.69;100.00;74185.19;5054844;28;20214;-77
2021/12/19 09:26:40;;;;;;;15.67;5.87;;;;;;;-145.69;100.00;74171.25;5054784;28;20208;-77
2021/12/19 09:29:08;;;;;;;14.37;6.40;;;;;;;-145.69;100.00;74159.31;5055009;28;20207;-77
2021/12/19 09:31:35;;;;;;;14.17;5.80;;;;;;;-145.69;100.00;74157.31;5054929;28;20199;-77
2021/12/19 09:34:03;;;;;;;13.43;5.37;;;;;;;-145.69;100.00;74145.38;5054837;28;20206;-77
2021/12/19 09:36:30;;;;;;;14.17;5.37;;;;;;;-145.69;100.00;74129.44;5054246;28;20207;-77
2021/12/19 09:38:56;;;;;;;14.43;5.47;;;;;;;-145.69;100.00;74117.50;5054530;28;20234;-78
2021/12/19 09:41:28;;;;;;;11.47;4.97;;;;;;;-145.69;100.00;74105.53;5054268;28;20261;-77
2021/12/19 09:43:58;;;;;;;10.50;4.60;;;;;;;-145.69;100.00;74093.59;5054777;28;20204;-78
2021/12/19 09:46:29;;;;;;;13.87;4.70;;;;;;;-145.69;100.00;74081.66;5053975;28;20601;-77
2021/12/19 09:48:56;;;;;;;14.13;5.30;;;;;;;-145.69;100.00;74063.72;5054483;28;20195;-78
2021/12/19 09:51:24;;;;;;;15.47;5.67;;;;;;;-145.69;100.00;74049.78;5053560;28;20196;-77
2021/12/19 09:53:51;;;;;;;14.60;5.53;;;;;;;-145.69;100.00;74033.84;5053881;28;20204;-77
2021/12/19 09:56:33;;;;;;;12.43;5.47;;;;;;;-145.69;100.00;74017.94;5054548;28;20203;-78
2021/12/19 09:59:02;;;;;;;9.23;4.33;;;;;;;-145.69;100.00;74002.00;5054205;28;20223;-77
2021/12/19 10:01:29;;;;;;;9.07;4.17;;;;;;;-145.69;100.00;73988.06;5054327;28;20200;-77
2021/12/19 10:03:55;;;;;;;9.67;4.50;;;;;;;-145.69;100.00;73970.16;5054205;28;20207;-78
2021/12/19 10:06:29;;;;;;;13.20;4.30;;;;;;;-145.69;100.00;73958.19;5054195;28;20414;-78
2021/12/19 10:09:10;;;;;;;6.43;3.23;;;;;;;-145.69;100.00;73940.28;5054141;28;20627;-77
2021/12/19 10:11:52;;;;;;;4.00;2.57;;;;;;;-145.69;100.00;73916.38;5053614;28;20625;-77
2021/12/19 10:14:29;;;;;;;7.23;2.90;;;;;;;-145.69;100.00;73898.47;5054071;28;20562;-77
2021/12/19 10:16:57;;;;;;;8.27;3.40;;;;;;;-145.69;100.00;73876.56;5053728;28;20658;-77
2021/12/19 10:19:41;;;;;;;8.93;4.20;;;;;;;-145.69;100.00;73858.63;5053668;28;20234;-77
2021/12/19 10:22:23;;;;;;;32.90;14.33;;;;;;;-145.69;100.00;73836.75;5053771;28;20230;-77
2021/12/19 10:24:52;;;;;;;17.07;7.93;;;;;;;-145.69;100.00;73800.91;5053694;28;20199;-78
2021/12/19 10:27:32;;;;;;;14.20;6.30;;;;;;;-145.69;100.00;73786.97;5053502;28;20199;-77
2021/12/19 10:29:59;;;;;;;17.10;7.03;;;;;;;-145.69;100.00;73775.00;5053764;28;20206;-77
2021/12/19 10:32:26;;;;;;;16.47;6.77;;;;;;;-145.69;100.00;73773.03;5053703;28;20204;-77
2021/12/19 10:35:13;;;;;;;15.00;6.90;;;;;;;-145.69;100.00;73777.00;5050923;28;20210;-77
2021/12/19 10:37:44;;;;;;;24.27;9.70;;;;;;;-145.69;100.00;73773.03;5033584;28;20651;-78
2021/12/19 10:40:12;;;;;;;22.47;9.90;;;;;;;-145.69;100.00;73767.06;5041394;28;20229;-79
2021/12/19 10:42:54;;;;;;;29.63;13.90;;;;;;;-145.69;100.00;73753.13;5052923;28;20203;-80
2021/12/19 10:45:32;;;;;;;25.73;14.10;;;;;;;-145.69;100.00;73751.13;5053030;28;20672;-79
2021/12/19 10:48:20;;;;;;;21.93;11.57;;;;;;;-145.69;100.00;73739.19;5052903;28;20676;-79
2021/12/19 10:50:49;;;;;;;22.87;9.47;;;;;;;-145.69;100.00;73723.25;5053340;28;20226;-78
2021/12/19 10:53:18;;;;;;;14.30;6.70;;;;;;;-145.69;100.00;73703.34;5053245;28;20199;-78
2021/12/19 10:55:46;;;;;;;14.47;6.93;;;;;;;-145.69;100.00;73683.44;5053074;28;20207;-78
2021/12/19 10:58:22;;;;;;;16.33;6.93;;;;;;;-145.69;100.00;73675.47;5053087;28;20207;-80
2021/12/19 11:00:58;;;;;;;16.53;8.20;;;;;;;-145.69;100.00;73663.53;5053104;28;20209;-80
2021/12/19 11:03:34;;;;;;;24.10;10.00;;;;;;;-145.69;100.00;73647.59;5052739;28;20298;-79
2021/12/19 11:06:01;;;;;;;23.03;10.23;;;;;;;-145.69;100.00;73635.66;5053130;28;20237;-80
2021/12/19 11:08:31;;;;;;;25.13;11.20;;;;;;;-145.69;100.00;73619.72;5052866;28;20206;-78
2021/12/19 11:11:01;;;;;;;24.20;11.10;;;;;;;-145.69;100.00;73609.75;5052391;28;20710;-78
2021/12/19 11:13:29;;;;;;;28.55;13.63;;;;;;;-145.69;100.00;73603.78;5051352;28;20946;-78
2021/12/19 11:15:55;;;;;;;22.60;10.43;;;;;;;-145.69;100.00;73595.81;5052931;28;20203;-79
2021/12/19 11:18:24;;;;;;;19.23;9.03;;;;;;;-145.69;100.00;73583.88;5052325;28;20200;-78
2021/12/19 11:20:55;;;;;;;19.50;9.13;;;;;;;-145.69;100.00;73571.94;5052788;28;20223;-78
2021/12/19 11:23:26;;;;;;;21.17;9.30;;;;;;;-145.69;100.00;73563.97;5052598;28;20204;-79
2021/12/19 11:25:57;;;;;;;21.33;9.87;;;;;;;-145.69;100.00;73544.06;5052267;28;20711;-78
2021/12/19 11:28:24;;;;;;;20.33;9.33;;;;;;;-145.69;100.00;73544.06;5052684;28;20203;-78
2021/12/19 11:30:52;;;;;;;17.80;8.07;;;;;;;-145.69;100.00;73532.13;5052537;28;20658;-78
2021/12/19 11:33:32;;;;;;;17.97;8.03;;;;;;;-145.69;100.00;73520.16;5052647;28;20253;-78
2021/12/19 11:36:01;;;;;;;15.73;8.10;;;;;;;-145.69;100.00;73500.25;5051849;28;20665;-78
2021/12/19 11:38:29;;;;;;;21.63;9.43;;;;;;;-145.69;100.00;73482.34;5052556;28;20559;-78
2021/12/19 11:40:57;;;;;;;23.93;9.93;;;;;;;-145.69;100.00;73478.34;5052314;28;20223;-78
2021/12/19 11:43:35;;;;;;;25.20;10.53;;;;;;;-145.69;100.00;73458.44;5052365;28;20199;-78
2021/12/19 11:46:09;;;;;;;22.63;10.03;;;;;;;-145.69;100.00;73434.56;5052249;28;20201;-78
2021/12/19 11:48:38;;;;;;;23.93;10.13;;;;;;;-145.69;100.00;73426.59;5052131;28;20203;-78
2021/12/19 11:51:06;;;;;;;19.30;9.43;;;;;;;-145.69;100.00;73410.66;5052019;28;20188;-78
2021/12/19 11:53:34;;;;;;;18.10;9.03;;;;;;;-145.69;100.00;73400.72;5052319;28;20257;-78
2021/12/19 11:56:09;;;;;;;21.80;9.27;;;;;;;-145.69;100.00;73396.72;5052396;28;20196;-78
2021/12/19 11:58:45;;;;;;;15.40;8.20;;;;;;;-145.69;100.00;73378.81;5052174;28;20195;-78
2021/12/19 12:01:14;;;;;;;18.83;8.80;;;;;;;-145.69;100.00;73392.75;5052191;28;20195;-78